createdAt,value
2018-05-01T00:00:58.695Z,4.33
2018-05-01T00:03:27.026Z,1.43
2018-05-01T00:05:55.570Z,3.63
2018-05-01T00:08:23.928Z,1.50
2018-05-01T00:10:52.383Z,1.30
2018-05-01T00:13:21.121Z,1.53
2018-05-01T00:15:49.517Z,2.10
2018-05-01T00:18:17.874Z,3.20
2018-05-01T00:20:46.245Z,3.30
2018-05-01T00:23:14.681Z,2.53
2018-05-01T00:25:43.011Z,1.93
2018-05-01T00:28:11.408Z,1.63
2018-05-01T00:30:39.763Z,1.53
2018-05-01T00:33:08.123Z,1.70
2018-05-01T00:35:36.909Z,2.17
2018-05-01T00:38:05.249Z,5.03
2018-05-01T00:40:33.585Z,2.00
2018-05-01T00:43:02.204Z,1.30
2018-05-01T00:45:30.566Z,3.47
2018-05-01T00:47:59.016Z,5.47
2018-05-01T00:50:27.436Z,1.50
2018-05-01T00:52:55.779Z,3.12
2018-05-01T00:55:24.178Z,2.53
2018-05-01T00:57:53.411Z,6.87
2018-05-01T01:00:21.797Z,1.70
2018-05-01T01:02:50.173Z,1.27
2018-05-01T01:05:19.834Z,1.50
2018-05-01T01:07:48.228Z,4.30
2018-05-01T01:10:16.610Z,3.37
2018-05-01T01:12:45.175Z,2.63
2018-05-01T01:15:13.581Z,4.60
2018-05-01T01:17:42.063Z,1.53
2018-05-01T01:20:10.480Z,4.20
2018-05-01T01:22:39.115Z,4.97
2018-05-01T01:25:07.464Z,2.07
2018-05-01T01:27:36.693Z,1.07
2018-05-01T01:30:05.042Z,2.77
2018-05-01T01:32:33.377Z,1.50
2018-05-01T01:35:01.402Z,1.40
2018-05-01T01:37:29.263Z,0.70
2018-05-01T01:39:57.134Z,1.00
2018-05-01T01:42:25.763Z,1.03
2018-05-01T01:44:53.558Z,1.00
2018-05-01T01:47:21.603Z,1.40
2018-05-01T01:49:49.460Z,1.07
2018-05-01T01:52:17.285Z,0.77
2018-05-01T01:54:45.114Z,0.90
2018-05-01T01:57:12.967Z,1.27
2018-05-01T01:59:40.845Z,1.33
2018-05-01T02:02:08.681Z,2.73
2018-05-01T02:04:36.514Z,1.53
2018-05-01T02:07:04.849Z,0.80
2018-05-01T02:09:32.660Z,1.20
2018-05-01T02:12:00.690Z,1.30
2018-05-01T02:14:28.510Z,1.20
2018-05-01T02:16:56.321Z,5.43
2018-05-01T02:19:24.141Z,0.93
2018-05-01T02:21:51.965Z,1.90
2018-05-01T02:24:19.817Z,3.63
2018-05-01T02:26:47.689Z,0.90
2018-05-01T02:29:15.540Z,0.70
2018-05-01T02:31:43.436Z,1.17
2018-05-01T02:34:11.477Z,1.43
2018-05-01T02:36:39.261Z,2.73
2018-05-01T02:39:07.088Z,7.40
2018-05-01T02:41:35.076Z,3.22
2018-05-01T02:44:02.917Z,2.10
2018-05-01T02:46:30.713Z,0.90
2018-05-01T02:48:58.568Z,1.33
2018-05-01T02:51:26.343Z,1.40
2018-05-01T02:53:54.110Z,2.43
2018-05-01T02:56:21.959Z,0.90
2018-05-01T02:58:49.818Z,2.57
2018-05-01T03:01:17.684Z,0.90
2018-05-01T03:03:45.594Z,1.50
2018-05-01T03:06:13.441Z,3.57
2018-05-01T03:08:41.250Z,0.90
2018-05-01T03:11:09.141Z,3.47
2018-05-01T03:13:36.947Z,1.20
2018-05-01T03:16:04.773Z,15.02
2018-05-01T03:18:32.573Z,4.67
2018-05-01T03:21:00.359Z,1.23
2018-05-01T03:23:28.170Z,3.80
2018-05-01T03:25:55.991Z,1.70
2018-05-01T03:28:24.674Z,7.32
2018-05-01T03:30:52.532Z,12.82
2018-05-01T03:33:21.577Z,8.75
2018-05-01T03:35:49.387Z,1.47
2018-05-01T03:38:17.233Z,0.77
2018-05-01T03:40:45.157Z,1.10
2018-05-01T03:43:12.985Z,2.43
2018-05-01T03:45:40.816Z,4.27
2018-05-01T03:48:08.665Z,1.63
2018-05-01T03:50:36.476Z,2.40
2018-05-01T03:53:04.276Z,1.90
2018-05-01T03:55:32.183Z,5.97
2018-05-01T03:57:59.958Z,2.17
2018-05-01T04:00:27.768Z,1.55
2018-05-01T04:02:56.398Z,12.47
2018-05-01T04:05:24.198Z,1.20
2018-05-01T04:07:52.043Z,6.15
2018-05-01T04:10:19.894Z,1.70
2018-05-01T04:12:47.815Z,12.05
2018-05-01T04:15:15.892Z,8.25
2018-05-01T04:17:43.739Z,18.75
2018-05-01T04:20:11.520Z,3.65
2018-05-01T04:22:39.396Z,4.12
2018-05-01T04:25:08.305Z,4.45
2018-05-01T04:27:36.150Z,5.80
2018-05-01T04:30:03.958Z,1.10
2018-05-01T04:32:32.005Z,0.70
2018-05-01T04:34:59.834Z,0.73
2018-05-01T04:37:27.674Z,1.67
2018-05-01T04:39:55.532Z,6.70
2018-05-01T04:42:23.328Z,0.60
2018-05-01T04:44:51.234Z,3.25
2018-05-01T04:47:19.240Z,1.95
2018-05-01T04:49:47.056Z,0.75
2018-05-01T04:52:14.909Z,0.82
2018-05-01T04:54:43.390Z,0.85
2018-05-01T04:57:11.243Z,3.50
2018-05-01T04:59:39.088Z,0.80
2018-05-01T05:02:07.161Z,0.77
2018-05-01T05:04:34.930Z,0.70
2018-05-01T05:07:03.237Z,0.70
2018-05-01T05:09:31.751Z,5.50
2018-05-01T05:11:59.538Z,0.80
2018-05-01T05:14:27.317Z,0.95
2018-05-01T05:16:56.213Z,1.98
2018-05-01T05:19:24.043Z,0.70
2018-05-01T05:21:51.838Z,3.55
2018-05-01T05:24:20.545Z,0.80
2018-05-01T05:26:48.261Z,1.85
2018-05-01T05:29:16.075Z,4.15
2018-05-01T05:31:44.788Z,4.10
2018-05-01T05:34:12.620Z,0.88
2018-05-01T05:36:40.537Z,3.42
2018-05-01T05:39:09.103Z,0.80
2018-05-01T05:41:36.979Z,3.87
2018-05-01T05:44:04.773Z,0.80
2018-05-01T05:46:32.693Z,0.80
2018-05-01T05:49:00.579Z,0.80
2018-05-01T05:51:28.363Z,0.70
2018-05-01T05:53:59.233Z,0.80
2018-05-01T05:56:27.033Z,0.80
2018-05-01T05:58:54.820Z,1.40
2018-05-01T06:01:23.374Z,1.30
2018-05-01T06:03:51.154Z,0.80
2018-05-01T06:06:18.942Z,0.85
2018-05-01T06:08:48.346Z,0.98
2018-05-01T06:11:16.176Z,0.80
2018-05-01T06:13:44.135Z,0.82
2018-05-01T06:16:12.019Z,0.70
2018-05-01T06:18:39.906Z,1.08
2018-05-01T06:21:07.693Z,0.80
2018-05-01T06:23:36.116Z,0.70
2018-05-01T06:26:03.916Z,0.60
2018-05-01T06:28:31.741Z,0.80
2018-05-01T06:31:00.564Z,4.35
2018-05-01T06:33:28.366Z,0.80
2018-05-01T06:35:56.213Z,2.28
2018-05-01T06:38:24.389Z,0.85
2018-05-01T06:40:52.185Z,2.28
2018-05-01T06:43:20.061Z,3.08
2018-05-01T06:45:48.779Z,10.27
2018-05-01T06:48:16.855Z,1.55
2018-05-01T06:50:44.855Z,0.98
2018-05-01T06:53:13.308Z,0.88
2018-05-01T06:55:41.394Z,2.05
2018-05-01T06:58:09.416Z,1.10
2018-05-01T07:00:37.382Z,0.93
2018-05-01T07:03:05.181Z,1.10
2018-05-01T07:05:32.962Z,1.00
2018-05-01T07:08:00.802Z,0.98
2018-05-01T07:10:28.599Z,0.90
2018-05-01T07:12:56.494Z,1.80
2018-05-01T07:15:24.420Z,0.82
2018-05-01T07:17:52.201Z,2.50
2018-05-01T07:20:20.047Z,1.00
2018-05-01T07:22:48.209Z,1.10
2018-05-01T07:25:16.086Z,1.17
2018-05-01T07:27:43.921Z,1.00
2018-05-01T07:30:13.237Z,0.82
2018-05-01T07:32:41.033Z,1.10
2018-05-01T07:35:09.063Z,1.20
2018-05-01T07:37:38.299Z,1.23
2018-05-01T07:40:06.165Z,1.10
2018-05-01T07:42:33.949Z,1.10
2018-05-01T07:45:01.759Z,1.05
2018-05-01T07:47:29.659Z,0.88
2018-05-01T07:49:57.590Z,1.42
2018-05-01T07:52:25.481Z,3.05
2018-05-01T07:54:53.276Z,1.00
2018-05-01T07:57:21.104Z,0.98
2018-05-01T07:59:49.057Z,0.90
2018-05-01T08:02:17.112Z,1.60
2018-05-01T08:04:45.029Z,1.08
2018-05-01T08:07:13.371Z,1.10
2018-05-01T08:09:41.261Z,0.95
2018-05-01T08:12:10.405Z,2.28
2018-05-01T08:14:38.533Z,1.40
2018-05-01T08:17:06.316Z,1.37
2018-05-01T08:19:34.108Z,1.45
2018-05-01T08:22:02.112Z,1.58
2018-05-01T08:24:29.982Z,1.80
2018-05-01T08:26:57.743Z,1.30
2018-05-01T08:29:26.275Z,1.30
2018-05-01T08:31:54.064Z,1.10
2018-05-01T08:34:21.853Z,1.30
2018-05-01T08:36:49.818Z,1.73
2018-05-01T08:39:17.699Z,1.70
2018-05-01T08:41:45.665Z,1.17
2018-05-01T08:44:13.637Z,1.20
2018-05-01T08:46:41.564Z,1.15
2018-05-01T08:49:09.689Z,1.30
2018-05-01T08:51:37.750Z,1.40
2018-05-01T08:54:05.554Z,4.05
2018-05-01T08:56:33.334Z,1.15
2018-05-01T08:59:01.261Z,1.20
2018-05-01T09:01:29.068Z,1.42
2018-05-01T09:03:56.837Z,1.35
2018-05-01T09:06:25.002Z,1.27
2018-05-01T09:08:52.821Z,4.30
2018-05-01T09:11:20.615Z,3.15
2018-05-01T09:13:48.600Z,2.30
2018-05-01T09:16:16.427Z,8.35
2018-05-01T09:18:44.258Z,1.70
2018-05-01T09:21:12.429Z,1.50
2018-05-01T09:23:40.417Z,1.60
2018-05-01T09:26:08.213Z,4.05
2018-05-01T09:28:36.077Z,1.70
2018-05-01T09:31:04.030Z,1.70
2018-05-01T09:33:31.841Z,2.65
2018-05-01T09:36:00.262Z,2.70
2018-05-01T09:38:28.057Z,4.18
2018-05-01T09:40:55.850Z,4.85
2018-05-01T09:43:23.690Z,2.33
2018-05-01T09:45:51.505Z,2.25
2018-05-01T09:48:19.312Z,3.87
2018-05-01T09:50:47.342Z,2.83
2018-05-01T09:53:15.749Z,1.85
2018-05-01T09:55:44.453Z,2.00
2018-05-01T09:58:13.955Z,1.98
2018-05-01T10:00:42.491Z,1.92
2018-05-01T10:03:10.928Z,2.03
2018-05-01T10:05:40.345Z,4.35
2018-05-01T10:08:09.112Z,2.05
2018-05-01T10:10:37.630Z,2.10
2018-05-01T10:13:06.768Z,2.37
2018-05-01T10:15:35.263Z,2.20
2018-05-01T10:18:03.573Z,2.12
2018-05-01T10:20:31.944Z,2.78
2018-05-01T10:23:00.255Z,2.00
2018-05-01T10:25:28.575Z,2.00
2018-05-01T10:27:56.916Z,3.20
2018-05-01T10:30:25.308Z,2.12
2018-05-01T10:32:53.677Z,1.48
2018-05-01T10:35:22.135Z,2.33
2018-05-01T10:37:50.798Z,2.10
2018-05-01T10:40:19.340Z,2.65
2018-05-01T10:42:47.923Z,2.10
2018-05-01T10:45:16.461Z,2.05
2018-05-01T10:47:46.586Z,4.25
2018-05-01T10:50:16.076Z,2.80
2018-05-01T10:52:46.507Z,4.05
2018-05-01T10:55:14.950Z,1.62
2018-05-01T10:57:44.120Z,1.95
2018-05-01T11:00:12.677Z,2.60
2018-05-01T11:02:41.072Z,5.15
2018-05-01T11:05:09.528Z,1.85
2018-05-01T11:07:37.971Z,1.80
2018-05-01T11:10:06.313Z,2.45
2018-05-01T11:12:34.889Z,1.90
2018-05-01T11:15:03.243Z,1.50
2018-05-01T11:17:31.645Z,7.57
2018-05-01T11:20:00.865Z,1.70
2018-05-01T11:22:29.274Z,2.65
2018-05-01T11:24:57.602Z,2.30
2018-05-01T11:27:26.367Z,3.50
2018-05-01T11:29:54.773Z,2.12
2018-05-01T11:32:23.230Z,4.95
2018-05-01T11:34:51.701Z,3.97
2018-05-01T11:37:20.178Z,2.53
2018-05-01T11:39:48.683Z,5.10
2018-05-01T11:42:17.268Z,2.60
2018-05-01T11:44:45.805Z,2.85
2018-05-01T11:47:14.668Z,2.35
2018-05-01T11:49:43.349Z,3.67
2018-05-01T11:52:11.893Z,2.97
2018-05-01T11:54:41.131Z,1.62
2018-05-01T11:57:09.704Z,1.58
2018-05-01T11:59:38.062Z,3.42
2018-05-01T12:02:12.886Z,2.10
2018-05-01T12:04:45.784Z,2.25
2018-05-01T12:07:15.013Z,2.90
2018-05-01T12:09:43.568Z,1.65
2018-05-01T12:12:11.997Z,1.58
2018-05-01T12:14:42.587Z,7.07
2018-05-01T12:17:11.264Z,1.77
2018-05-01T12:19:39.726Z,3.55
2018-05-01T12:22:08.849Z,1.50
2018-05-01T12:24:37.247Z,1.67
2018-05-01T12:27:05.867Z,1.77
2018-05-01T12:29:34.357Z,3.87
2018-05-01T12:32:02.682Z,2.53
2018-05-01T12:34:31.031Z,2.05
2018-05-01T12:37:00.771Z,1.50
2018-05-01T12:39:29.150Z,1.58
2018-05-01T12:41:57.494Z,1.40
2018-05-01T12:44:26.728Z,2.70
2018-05-01T12:46:55.107Z,1.37
2018-05-01T12:49:23.446Z,2.03
2018-05-01T12:51:51.947Z,1.70
2018-05-01T12:54:20.468Z,2.12
2018-05-01T12:56:48.877Z,1.83
2018-05-01T12:59:17.656Z,8.98
2018-05-01T13:01:46.045Z,8.95
2018-05-01T13:04:15.380Z,1.52
2018-05-01T13:06:43.863Z,2.25
2018-05-01T13:09:12.285Z,2.87
2018-05-01T13:11:40.735Z,1.17
2018-05-01T13:14:09.958Z,1.08
2018-05-01T13:16:38.344Z,4.05
2018-05-01T13:19:06.709Z,1.12
2018-05-01T13:21:35.357Z,2.05
2018-05-01T13:24:03.700Z,3.42
2018-05-01T13:26:32.058Z,3.17
2018-05-01T13:29:01.215Z,3.08
2018-05-01T13:31:29.563Z,6.72
2018-05-01T13:33:57.905Z,3.50
2018-05-01T13:36:26.374Z,1.70
2018-05-01T13:38:54.718Z,6.05
2018-05-01T13:41:23.033Z,1.55
2018-05-01T13:43:51.385Z,4.57
2018-05-01T13:46:19.733Z,4.20
2018-05-01T13:48:48.281Z,4.25
2018-05-01T13:51:16.766Z,2.72
2018-05-01T13:53:45.111Z,6.87
2018-05-01T13:56:13.524Z,2.70
2018-05-01T13:58:42.476Z,3.97
2018-05-01T14:01:11.082Z,3.67
2018-05-01T14:03:39.637Z,6.47
2018-05-01T14:06:08.150Z,1.90
2018-05-01T14:08:36.499Z,7.82
2018-05-01T14:11:04.991Z,4.47
2018-05-01T14:13:33.281Z,3.42
2018-05-01T14:16:01.641Z,2.85
2018-05-01T14:18:30.050Z,10.32
2018-05-01T14:20:58.515Z,6.20
2018-05-01T14:23:26.999Z,6.12
2018-05-01T14:25:55.331Z,4.80
2018-05-01T14:28:23.992Z,5.65
2018-05-01T14:30:52.353Z,8.40
2018-05-01T14:33:20.673Z,7.15
2018-05-01T14:35:49.021Z,8.38
2018-05-01T14:38:17.414Z,5.68
2018-05-01T14:40:45.890Z,5.82
2018-05-01T14:43:16.936Z,4.00
2018-05-01T14:45:45.283Z,4.40
2018-05-01T14:48:13.777Z,4.10
2018-05-01T14:50:42.449Z,4.35
2018-05-01T14:53:11.089Z,10.25
2018-05-01T14:55:39.518Z,5.30
2018-05-01T14:58:07.993Z,2.90
2018-05-01T15:00:36.318Z,2.67
2018-05-01T15:03:04.677Z,4.45
2018-05-01T15:05:34.209Z,1.73
2018-05-01T15:08:02.582Z,3.53
2018-05-01T15:10:30.953Z,5.45
2018-05-01T15:12:59.392Z,2.40
2018-05-01T15:15:27.775Z,9.25
2018-05-01T15:17:56.183Z,6.05
2018-05-01T15:20:24.650Z,1.30
2018-05-01T15:22:53.088Z,2.87
2018-05-01T15:25:21.672Z,3.05
2018-05-01T15:27:51.035Z,5.43
2018-05-01T15:30:19.590Z,4.68
2018-05-01T15:32:47.985Z,4.43
2018-05-01T15:35:16.619Z,8.07
2018-05-01T15:37:45.772Z,3.97
2018-05-01T15:40:15.223Z,9.30
2018-05-01T15:42:44.224Z,10.48
2018-05-01T15:45:12.744Z,5.70
2018-05-01T15:47:41.180Z,5.90
2018-05-01T15:50:11.047Z,8.23
2018-05-01T15:52:39.842Z,9.32
2018-05-01T15:55:08.214Z,7.03
2018-05-01T15:57:37.720Z,14.20
2018-05-01T16:00:06.083Z,27.02
2018-05-01T16:02:34.416Z,30.00
2018-05-01T16:05:03.202Z,28.20
2018-05-01T16:07:31.539Z,31.27
2018-05-01T16:09:59.920Z,13.73
2018-05-01T16:12:28.587Z,18.02
2018-05-01T16:14:56.965Z,20.15
2018-05-01T16:17:25.426Z,20.55
2018-05-01T16:19:55.206Z,22.37
2018-05-01T16:22:23.585Z,33.33
2018-05-01T16:24:52.020Z,23.25
2018-05-01T16:27:20.499Z,15.73
2018-05-01T16:29:48.878Z,29.60
2018-05-01T16:32:17.306Z,18.77
2018-05-01T16:34:45.803Z,21.58
2018-05-01T16:37:14.238Z,17.12
2018-05-01T16:39:42.767Z,12.85
2018-05-01T16:42:12.548Z,10.15
2018-05-01T16:44:42.818Z,13.23
2018-05-01T16:47:14.447Z,7.60
2018-05-01T16:49:43.636Z,12.13
2018-05-01T16:52:12.322Z,11.55
2018-05-01T16:54:42.294Z,17.70
2018-05-01T16:57:10.820Z,8.75
2018-05-01T16:59:39.209Z,5.37
2018-05-01T17:02:09.273Z,6.22
2018-05-01T17:04:37.760Z,9.40
2018-05-01T17:07:06.086Z,17.08
2018-05-01T17:09:34.551Z,18.23
2018-05-01T17:12:02.917Z,21.92
2018-05-01T17:14:31.281Z,8.63
2018-05-01T17:17:00.539Z,11.98
2018-05-01T17:19:29.412Z,7.85
2018-05-01T17:21:57.802Z,15.32
2018-05-01T17:24:26.938Z,15.55
2018-05-01T17:26:55.286Z,14.35
2018-05-01T17:29:23.695Z,23.10
2018-05-01T17:31:52.077Z,13.35
2018-05-01T17:34:20.468Z,27.58
2018-05-01T17:36:48.852Z,15.57
2018-05-01T17:39:17.996Z,24.52
2018-05-01T17:41:46.379Z,34.97
2018-05-01T17:44:14.817Z,23.12
2018-05-01T17:46:43.193Z,24.23
2018-05-01T17:49:11.607Z,38.35
2018-05-01T17:51:39.967Z,28.38
2018-05-01T17:54:09.280Z,25.70
2018-05-01T17:56:37.619Z,24.83
2018-05-01T17:59:05.957Z,20.80
2018-05-01T18:01:35.037Z,42.62
2018-05-01T18:04:03.492Z,45.42
2018-05-01T18:06:31.904Z,32.60
2018-05-01T18:09:00.231Z,29.10
2018-05-01T18:11:28.599Z,26.08
2018-05-01T18:13:56.939Z,31.05
2018-05-01T18:16:25.476Z,28.25
2018-05-01T18:18:53.812Z,23.58
2018-05-01T18:21:22.535Z,43.40
2018-05-01T18:23:50.921Z,38.08
2018-05-01T18:26:19.611Z,21.15
2018-05-01T18:28:48.096Z,28.40
2018-05-01T18:31:16.598Z,34.35
2018-05-01T18:33:45.040Z,31.85
2018-05-01T18:36:13.531Z,29.05
2018-05-01T18:38:41.917Z,36.60
2018-05-01T18:41:10.413Z,17.40
2018-05-01T18:43:38.773Z,30.00
2018-05-01T18:46:07.180Z,37.08
2018-05-01T18:48:35.537Z,42.03
2018-05-01T18:51:03.850Z,26.85
2018-05-01T18:53:32.307Z,50.42
2018-05-01T18:56:00.691Z,26.25
2018-05-01T18:58:29.011Z,33.03
2018-05-01T19:00:57.411Z,23.38
2018-05-01T19:03:25.818Z,28.73
2018-05-01T19:05:54.181Z,39.55
2018-05-01T19:08:22.582Z,27.80
2018-05-01T19:10:50.924Z,27.05
2018-05-01T19:13:20.202Z,26.73
2018-05-01T19:15:48.925Z,43.72
2018-05-01T19:18:17.343Z,31.85
2018-05-01T19:20:45.775Z,33.25
2018-05-01T19:23:14.358Z,35.65
2018-05-01T19:25:43.075Z,33.10
2018-05-01T19:28:12.194Z,28.87
2018-05-01T19:30:41.135Z,28.52
2018-05-01T19:33:09.617Z,24.95
2018-05-01T19:35:37.943Z,30.25
2018-05-01T19:38:07.061Z,32.17
2018-05-01T19:40:35.402Z,33.58
2018-05-01T19:43:03.750Z,12.93
2018-05-01T19:45:32.130Z,16.48
2018-05-01T19:48:00.500Z,23.30
2018-05-01T19:50:28.853Z,32.55
2018-05-01T19:52:57.344Z,22.42
2018-05-01T19:55:26.710Z,19.60
2018-05-01T19:57:55.142Z,20.35
2018-05-01T20:00:23.920Z,35.28
2018-05-01T20:02:52.373Z,28.60
2018-05-01T20:05:20.917Z,31.10
2018-05-01T20:07:49.633Z,27.35
2018-05-01T20:10:18.235Z,20.90
2018-05-01T20:12:46.594Z,17.00
2018-05-01T20:15:15.347Z,26.02
2018-05-01T20:17:43.737Z,25.70
2018-05-01T20:20:12.081Z,23.42
2018-05-01T20:22:41.925Z,19.98
2018-05-01T20:25:10.675Z,26.70
2018-05-01T20:27:39.037Z,19.37
2018-05-01T20:30:07.397Z,18.15
2018-05-01T20:32:35.746Z,23.17
2018-05-01T20:35:04.159Z,20.20
2018-05-01T20:37:32.800Z,28.27
2018-05-01T20:40:01.126Z,39.55
2018-05-01T20:42:29.458Z,19.65
2018-05-01T20:44:57.970Z,23.77
2018-05-01T20:47:26.618Z,28.67
2018-05-01T20:49:55.191Z,21.23
2018-05-01T20:52:24.368Z,17.10
2018-05-01T20:54:53.237Z,22.13
2018-05-01T20:57:21.635Z,18.55
2018-05-01T20:59:50.165Z,37.50
2018-05-01T21:02:18.911Z,23.80
2018-05-01T21:04:47.533Z,20.37
2018-05-01T21:07:16.936Z,14.95
2018-05-01T21:09:45.319Z,11.35
2018-05-01T21:12:13.820Z,16.30
2018-05-01T21:14:42.237Z,11.32
2018-05-01T21:17:10.972Z,21.35
2018-05-01T21:19:39.452Z,15.27
2018-05-01T21:22:07.891Z,19.87
2018-05-01T21:24:36.237Z,22.30
2018-05-01T21:27:04.607Z,19.40
2018-05-01T21:29:33.022Z,14.68
2018-05-01T21:32:01.375Z,24.55
2018-05-01T21:34:29.817Z,30.48
2018-05-01T21:36:58.813Z,14.43
2018-05-01T21:39:27.200Z,14.45
2018-05-01T21:41:55.621Z,16.62
2018-05-01T21:44:24.186Z,14.20
2018-05-01T21:46:52.627Z,13.10
2018-05-01T21:49:21.035Z,16.87
2018-05-01T21:51:49.723Z,12.02
2018-05-01T21:54:18.104Z,16.95
2018-05-01T21:56:46.499Z,28.58
2018-05-01T21:59:15.527Z,24.58
2018-05-01T22:01:44.019Z,22.87
2018-05-01T22:04:12.668Z,15.80
2018-05-01T22:06:41.451Z,19.23
2018-05-01T22:09:10.665Z,22.25
2018-05-01T22:11:39.117Z,10.80
2018-05-01T22:14:07.523Z,12.52
2018-05-01T22:16:36.925Z,16.58
2018-05-01T22:19:05.277Z,13.88
2018-05-01T22:21:33.654Z,13.52
2018-05-01T22:24:02.019Z,18.58
2018-05-01T22:26:30.328Z,21.90
2018-05-01T22:28:58.703Z,26.98
2018-05-01T22:31:27.163Z,21.05
2018-05-01T22:33:55.496Z,18.40
2018-05-01T22:36:24.332Z,14.65
2018-05-01T22:38:52.679Z,16.73
2018-05-01T22:41:21.081Z,20.12
2018-05-01T22:43:49.872Z,19.58
2018-05-01T22:46:18.260Z,10.98
2018-05-01T22:48:46.873Z,24.12
2018-05-01T22:51:15.416Z,27.05
2018-05-01T22:53:43.829Z,14.02
2018-05-01T22:56:12.381Z,8.70
2018-05-01T22:58:41.830Z,14.25
2018-05-01T23:01:10.277Z,19.15
2018-05-01T23:03:39.042Z,14.80
2018-05-01T23:06:11.034Z,8.07
2018-05-01T23:08:41.092Z,13.85
2018-05-01T23:11:09.600Z,22.85
2018-05-01T23:13:39.629Z,11.55
2018-05-01T23:16:12.701Z,7.30
2018-05-01T23:18:41.451Z,9.65
2018-05-01T23:21:09.830Z,9.57
2018-05-01T23:23:38.145Z,18.15
2018-05-01T23:26:07.603Z,9.43
2018-05-01T23:28:35.928Z,14.77
2018-05-01T23:31:04.306Z,12.00
2018-05-01T23:33:32.677Z,11.25
2018-05-01T23:36:01.001Z,14.02
2018-05-01T23:38:29.380Z,9.00
2018-05-01T23:40:58.640Z,6.95
2018-05-01T23:43:27.002Z,8.27
2018-05-01T23:45:55.334Z,13.70
2018-05-01T23:48:23.714Z,7.00
2018-05-01T23:50:52.117Z,11.88
2018-05-01T23:53:20.565Z,23.65
2018-05-01T23:55:49.125Z,15.35
2018-05-01T23:58:17.653Z,7.65
